createdAt,value
2017-09-10T00:00:29.679Z,14.70
2017-09-10T00:02:59.000Z,15.13
2017-09-10T00:05:27.405Z,22.40
2017-09-10T00:07:55.777Z,18.50
2017-09-10T00:10:24.443Z,17.50
2017-09-10T00:12:52.811Z,13.23
2017-09-10T00:15:21.192Z,15.73
2017-09-10T00:17:49.865Z,21.37
2017-09-10T00:20:20.197Z,19.93
2017-09-10T00:22:48.598Z,18.03
2017-09-10T00:25:17.006Z,17.00
2017-09-10T00:27:45.431Z,17.90
2017-09-10T00:30:14.577Z,15.03
2017-09-10T00:32:43.185Z,16.30
2017-09-10T00:35:11.605Z,17.73
2017-09-10T00:37:39.981Z,17.20
2017-09-10T00:40:08.420Z,19.37
2017-09-10T00:42:36.934Z,16.13
2017-09-10T00:45:05.567Z,23.90
2017-09-10T00:47:34.193Z,17.90
2017-09-10T00:50:03.414Z,19.93
2017-09-10T00:52:31.844Z,17.57
2017-09-10T00:55:00.321Z,20.30
2017-09-10T00:57:28.813Z,26.00
2017-09-10T00:59:57.324Z,24.30
2017-09-10T01:02:25.777Z,26.50
2017-09-10T01:04:54.941Z,27.40
2017-09-10T01:07:23.378Z,25.47
2017-09-10T01:09:52.753Z,22.20
2017-09-10T01:12:21.259Z,22.90
2017-09-10T01:14:49.681Z,25.47
2017-09-10T01:17:18.233Z,23.13
2017-09-10T01:19:46.715Z,23.53
2017-09-10T01:22:15.225Z,27.07
2017-09-10T01:24:43.833Z,28.50
2017-09-10T01:27:12.254Z,39.27
2017-09-10T01:29:40.686Z,173.03
2017-09-10T01:32:09.263Z,232.33
2017-09-10T01:34:37.722Z,338.30
2017-09-10T01:37:06.116Z,423.57
2017-09-10T01:39:34.646Z,421.37
2017-09-10T01:42:03.034Z,246.63
2017-09-10T01:44:31.456Z,61.13
2017-09-10T01:46:59.957Z,63.90
2017-09-10T01:49:28.415Z,58.93
2017-09-10T01:51:56.797Z,46.63
2017-09-10T01:54:25.214Z,42.43
2017-09-10T01:56:53.582Z,54.30
2017-09-10T01:59:22.306Z,114.03
2017-09-10T02:01:51.089Z,69.73
2017-09-10T02:04:20.248Z,45.87
2017-09-10T02:06:48.643Z,49.43
2017-09-10T02:09:17.141Z,44.37
2017-09-10T02:11:45.552Z,44.10
2017-09-10T02:14:14.164Z,45.50
2017-09-10T02:16:42.634Z,40.37
2017-09-10T02:19:11.005Z,28.40
2017-09-10T02:21:39.391Z,31.60
2017-09-10T02:24:08.304Z,31.57
2017-09-10T02:26:36.729Z,42.40
2017-09-10T02:29:05.121Z,37.23
2017-09-10T02:31:33.544Z,38.90
2017-09-10T02:34:01.961Z,38.83
2017-09-10T02:36:30.435Z,33.40
2017-09-10T02:38:59.917Z,68.53
2017-09-10T02:41:29.063Z,39.07
2017-09-10T02:43:57.461Z,85.47
2017-09-10T02:46:25.868Z,94.27
2017-09-10T02:48:55.114Z,41.63
2017-09-10T02:51:23.501Z,33.67
2017-09-10T02:53:52.063Z,33.43
2017-09-10T02:56:20.475Z,37.43
2017-09-10T02:58:48.910Z,45.57
2017-09-10T03:01:18.285Z,84.30
2017-09-10T03:03:46.735Z,62.80
2017-09-10T03:06:15.136Z,70.73
2017-09-10T03:08:43.721Z,80.03
2017-09-10T03:11:12.098Z,35.30
2017-09-10T03:13:40.454Z,46.80
2017-09-10T03:16:08.870Z,46.87
2017-09-10T03:18:37.233Z,36.30
2017-09-10T03:21:05.617Z,57.70
2017-09-10T03:23:34.872Z,47.13
2017-09-10T03:26:03.297Z,43.70
2017-09-10T03:28:31.810Z,35.80
2017-09-10T03:31:00.256Z,30.60
2017-09-10T03:33:28.662Z,29.43
2017-09-10T03:35:57.823Z,30.30
2017-09-10T03:38:26.646Z,43.97
2017-09-10T03:40:55.833Z,45.77
2017-09-10T03:43:24.233Z,42.67
2017-09-10T03:45:53.603Z,33.47
2017-09-10T03:48:21.980Z,37.20
2017-09-10T03:50:50.399Z,33.03
2017-09-10T03:53:19.405Z,39.13
2017-09-10T03:55:47.807Z,40.27
2017-09-10T03:58:16.172Z,27.57
2017-09-10T04:00:44.697Z,18.90
2017-09-10T04:03:13.881Z,24.27
2017-09-10T04:05:43.048Z,25.57
2017-09-10T04:08:11.625Z,21.17
2017-09-10T04:10:40.012Z,37.50
2017-09-10T04:13:08.461Z,30.40
2017-09-10T04:15:37.136Z,21.37
2017-09-10T04:18:05.697Z,25.80
2017-09-10T04:20:34.169Z,25.03
2017-09-10T04:23:02.777Z,26.60
2017-09-10T04:25:31.337Z,43.23
2017-09-10T04:27:59.885Z,37.27
2017-09-10T04:30:28.433Z,39.00
2017-09-10T04:32:56.902Z,31.87
2017-09-10T04:35:25.322Z,28.40
2017-09-10T04:37:53.788Z,23.23
2017-09-10T04:40:23.010Z,31.27
2017-09-10T04:42:51.640Z,31.43
2017-09-10T04:45:20.253Z,35.77
2017-09-10T04:47:48.733Z,27.33
2017-09-10T04:50:17.921Z,32.00
2017-09-10T04:52:46.553Z,32.43
2017-09-10T04:55:14.921Z,25.30
2017-09-10T04:57:43.310Z,29.20
2017-09-10T05:00:11.876Z,26.70
2017-09-10T05:02:40.301Z,25.77
2017-09-10T05:05:08.729Z,18.83
2017-09-10T05:07:37.245Z,20.13
2017-09-10T05:10:05.689Z,25.20
2017-09-10T05:12:34.081Z,19.77
2017-09-10T05:15:02.737Z,15.13
2017-09-10T05:17:31.187Z,11.50
2017-09-10T05:20:00.608Z,19.60
2017-09-10T05:22:30.069Z,16.07
2017-09-10T05:24:58.488Z,10.20
2017-09-10T05:27:26.888Z,16.13
2017-09-10T05:29:55.353Z,15.57
2017-09-10T05:32:23.768Z,13.53
2017-09-10T05:34:52.153Z,13.10
2017-09-10T05:37:20.857Z,13.90
2017-09-10T05:39:49.313Z,13.63
2017-09-10T05:42:17.737Z,13.50
2017-09-10T05:44:46.279Z,15.83
2017-09-10T05:47:14.674Z,14.30
2017-09-10T05:49:43.077Z,13.50
2017-09-10T05:52:11.582Z,16.23
2017-09-10T05:54:40.784Z,15.50
2017-09-10T05:57:09.215Z,11.10
2017-09-10T05:59:37.728Z,12.30
2017-09-10T06:02:06.121Z,21.50
2017-09-10T06:04:34.609Z,21.67
2017-09-10T06:07:03.904Z,14.83
2017-09-10T06:09:33.038Z,18.07
2017-09-10T06:12:01.453Z,18.67
2017-09-10T06:14:30.057Z,18.80
2017-09-10T06:16:59.198Z,18.33
2017-09-10T06:19:27.644Z,15.20
2017-09-10T06:21:57.343Z,14.40
2017-09-10T06:24:25.810Z,14.10
2017-09-10T06:26:54.287Z,10.47
2017-09-10T06:29:22.699Z,11.27
2017-09-10T06:31:52.032Z,12.10
2017-09-10T06:34:20.442Z,18.40
2017-09-10T06:36:49.199Z,15.57
2017-09-10T06:39:17.643Z,14.67
2017-09-10T06:41:46.809Z,16.07
2017-09-10T06:44:15.543Z,23.63
2017-09-10T06:46:43.958Z,14.93
2017-09-10T06:49:12.481Z,15.20
2017-09-10T06:51:40.903Z,13.00
2017-09-10T06:54:09.292Z,16.83
2017-09-10T06:56:38.009Z,10.30
2017-09-10T06:59:06.711Z,10.60
2017-09-10T07:01:35.095Z,12.10
2017-09-10T07:04:04.273Z,16.83
2017-09-10T07:06:32.893Z,15.53
2017-09-10T07:09:02.070Z,12.20
2017-09-10T07:11:31.259Z,12.23
2017-09-10T07:13:59.960Z,14.40
2017-09-10T07:16:29.139Z,10.43
2017-09-10T07:18:57.541Z,11.17
2017-09-10T07:21:26.157Z,12.77
2017-09-10T07:23:54.719Z,10.40
2017-09-10T07:26:23.087Z,7.23
2017-09-10T07:28:51.670Z,9.70
2017-09-10T07:31:20.816Z,18.00
2017-09-10T07:33:49.199Z,10.20
2017-09-10T07:36:18.097Z,11.10
2017-09-10T07:38:46.469Z,9.53
2017-09-10T07:41:14.837Z,8.30
2017-09-10T07:43:43.447Z,7.90
2017-09-10T07:46:12.015Z,12.50
2017-09-10T07:48:40.370Z,14.33
2017-09-10T07:51:08.884Z,11.43
2017-09-10T07:53:37.259Z,9.70
2017-09-10T07:56:05.676Z,11.03
2017-09-10T07:58:35.183Z,14.10
2017-09-10T08:01:03.585Z,8.63
2017-09-10T08:03:31.982Z,10.57
2017-09-10T08:06:00.479Z,12.80
2017-09-10T08:08:28.854Z,11.23
2017-09-10T08:10:57.338Z,10.50
2017-09-10T08:13:26.106Z,10.63
2017-09-10T08:15:54.524Z,17.27
2017-09-10T08:18:22.927Z,9.10
2017-09-10T08:20:51.391Z,10.43
2017-09-10T08:23:19.829Z,9.80
2017-09-10T08:25:48.305Z,8.47
2017-09-10T08:28:17.017Z,8.80
2017-09-10T08:30:45.444Z,12.10
2017-09-10T08:33:13.822Z,8.83
2017-09-10T08:35:43.502Z,10.70
2017-09-10T08:38:11.869Z,8.20
2017-09-10T08:40:40.260Z,9.10
2017-09-10T08:43:09.639Z,7.13
2017-09-10T08:45:38.051Z,7.03
2017-09-10T08:48:07.189Z,7.00
2017-09-10T08:50:35.687Z,17.13
2017-09-10T08:53:04.050Z,7.47
2017-09-10T08:55:32.462Z,11.33
2017-09-10T08:58:01.026Z,6.90
2017-09-10T09:00:29.462Z,10.07
2017-09-10T09:02:58.602Z,7.00
2017-09-10T09:05:27.540Z,9.87
2017-09-10T09:07:56.728Z,7.77
2017-09-10T09:10:25.918Z,6.20
2017-09-10T09:12:54.357Z,10.30
2017-09-10T09:15:22.772Z,5.83
2017-09-10T09:17:51.144Z,4.17
2017-09-10T09:20:19.602Z,4.63
2017-09-10T09:22:47.978Z,3.63
2017-09-10T09:25:16.570Z,3.17
2017-09-10T09:27:45.345Z,4.63
2017-09-10T09:30:13.828Z,5.27
2017-09-10T09:32:42.248Z,7.33
2017-09-10T09:35:10.690Z,4.40
2017-09-10T09:37:39.072Z,4.33
2017-09-10T09:40:07.471Z,3.57
2017-09-10T09:42:36.034Z,5.53
2017-09-10T09:45:05.207Z,4.10
2017-09-10T09:47:33.622Z,4.73
2017-09-10T09:50:02.318Z,11.03
2017-09-10T09:52:30.825Z,8.17
2017-09-10T09:54:59.973Z,3.00
2017-09-10T09:57:28.519Z,7.83
2017-09-10T09:59:56.942Z,3.83
2017-09-10T10:02:25.366Z,4.90
2017-09-10T10:04:54.782Z,5.50
2017-09-10T10:07:23.151Z,4.70
2017-09-10T10:09:52.323Z,4.20
2017-09-10T10:12:20.780Z,5.00
2017-09-10T10:14:49.559Z,5.10
2017-09-10T10:17:18.025Z,4.83
2017-09-10T10:19:46.452Z,6.87
2017-09-10T10:22:14.851Z,4.80
2017-09-10T10:24:43.212Z,5.80
2017-09-10T10:27:12.569Z,4.50
2017-09-10T10:29:41.384Z,3.67
2017-09-10T10:32:09.845Z,4.97
2017-09-10T10:34:38.303Z,2.23
2017-09-10T10:37:06.676Z,7.47
2017-09-10T10:39:35.920Z,1.50
2017-09-10T10:42:04.409Z,4.43
2017-09-10T10:44:32.821Z,4.80
2017-09-10T10:47:01.981Z,1.83
2017-09-10T10:49:30.423Z,2.87
2017-09-10T10:51:58.841Z,2.30
2017-09-10T10:54:27.228Z,1.40
2017-09-10T10:56:55.937Z,6.07
2017-09-10T10:59:24.322Z,4.13
2017-09-10T11:01:53.469Z,2.43
2017-09-10T11:04:23.110Z,5.10
2017-09-10T11:06:51.487Z,3.70
2017-09-10T11:09:19.874Z,2.20
2017-09-10T11:11:48.696Z,4.60
2017-09-10T11:14:17.098Z,3.37
2017-09-10T11:16:45.513Z,6.93
2017-09-10T11:19:15.243Z,4.70
2017-09-10T11:21:44.387Z,4.63
2017-09-10T11:24:12.768Z,5.13
2017-09-10T11:26:41.169Z,4.20
2017-09-10T11:29:10.626Z,2.10
2017-09-10T11:31:39.061Z,2.90
2017-09-10T11:34:07.503Z,4.40
2017-09-10T11:36:35.890Z,1.70
2017-09-10T11:39:04.352Z,6.33
2017-09-10T11:41:32.923Z,2.80
2017-09-10T11:44:01.311Z,3.37
2017-09-10T11:46:29.672Z,2.20
2017-09-10T11:48:58.908Z,6.43
2017-09-10T11:51:28.128Z,1.97
2017-09-10T11:53:56.700Z,1.50
2017-09-10T11:56:25.295Z,2.27
2017-09-10T11:58:53.674Z,1.30
2017-09-10T12:01:22.050Z,3.17
2017-09-10T12:03:50.475Z,2.33
2017-09-10T12:06:18.948Z,1.50
2017-09-10T12:08:47.401Z,1.40
2017-09-10T12:11:16.000Z,5.43
2017-09-10T12:13:45.168Z,4.47
2017-09-10T12:16:13.638Z,9.53
2017-09-10T12:18:42.336Z,2.73
2017-09-10T12:21:10.774Z,1.80
2017-09-10T12:23:39.178Z,2.43
2017-09-10T12:26:07.646Z,2.53
2017-09-10T12:28:36.031Z,5.00
2017-09-10T12:31:04.473Z,2.40
2017-09-10T12:33:33.199Z,4.03
2017-09-10T12:36:02.384Z,2.13
2017-09-10T12:38:31.655Z,1.60
2017-09-10T12:41:00.233Z,2.90
2017-09-10T12:43:29.402Z,3.43
2017-09-10T12:45:57.796Z,3.50
2017-09-10T12:48:26.653Z,2.33
2017-09-10T12:50:55.079Z,2.30
2017-09-10T12:53:23.460Z,1.73
2017-09-10T12:55:53.156Z,4.20
2017-09-10T12:58:22.331Z,2.67
2017-09-10T13:00:50.736Z,2.73
2017-09-10T13:03:19.405Z,9.47
2017-09-10T13:05:47.769Z,2.43
2017-09-10T13:08:16.211Z,3.73
2017-09-10T13:10:44.867Z,3.43
2017-09-10T13:13:14.067Z,7.73
2017-09-10T13:15:43.246Z,1.97
2017-09-10T13:18:11.744Z,6.27
2017-09-10T13:20:41.081Z,4.10
2017-09-10T13:23:09.490Z,2.40
2017-09-10T13:25:38.008Z,3.20
2017-09-10T13:28:07.163Z,4.17
2017-09-10T13:30:35.602Z,2.47
2017-09-10T13:33:04.130Z,1.83
2017-09-10T13:35:32.707Z,2.80
2017-09-10T13:38:01.128Z,2.23
2017-09-10T13:40:30.470Z,1.63
2017-09-10T13:42:58.836Z,2.53
2017-09-10T13:45:27.370Z,2.87
2017-09-10T13:47:56.082Z,2.00
2017-09-10T13:50:24.499Z,2.70
2017-09-10T13:52:52.901Z,2.40
2017-09-10T13:55:21.752Z,3.50
2017-09-10T13:57:50.230Z,2.10
2017-09-10T14:00:18.620Z,2.30
2017-09-10T14:02:47.437Z,1.87
2017-09-10T14:05:15.820Z,4.70
2017-09-10T14:07:44.344Z,2.23
2017-09-10T14:10:13.623Z,1.13
2017-09-10T14:12:42.784Z,1.40
2017-09-10T14:15:11.186Z,1.40
2017-09-10T14:17:39.804Z,1.53
2017-09-10T14:20:08.954Z,5.00
2017-09-10T14:22:37.377Z,5.20
2017-09-10T14:25:05.790Z,2.20
2017-09-10T14:27:34.251Z,3.10
2017-09-10T14:30:02.679Z,1.93
2017-09-10T14:32:31.205Z,2.83
2017-09-10T14:34:59.867Z,1.80
2017-09-10T14:37:29.337Z,2.90
2017-09-10T14:39:58.163Z,4.60
2017-09-10T14:42:27.350Z,2.50
2017-09-10T14:44:55.736Z,1.20
2017-09-10T14:47:24.472Z,2.53
2017-09-10T14:49:52.843Z,6.50
2017-09-10T14:52:21.257Z,6.00
2017-09-10T14:54:50.439Z,1.77
2017-09-10T14:57:18.807Z,0.90
2017-09-10T14:59:47.267Z,3.37
2017-09-10T15:02:15.843Z,1.17
2017-09-10T15:04:45.084Z,1.47
2017-09-10T15:07:13.522Z,1.63
2017-09-10T15:09:41.998Z,1.87
2017-09-10T15:12:10.404Z,3.10
2017-09-10T15:14:38.847Z,1.30
2017-09-10T15:17:08.059Z,2.90
2017-09-10T15:19:37.181Z,1.40
2017-09-10T15:22:05.561Z,2.50
2017-09-10T15:24:34.141Z,1.53
2017-09-10T15:27:02.499Z,1.77
2017-09-10T15:29:31.662Z,1.47
2017-09-10T15:32:00.089Z,2.43
2017-09-10T15:34:28.504Z,1.20
2017-09-10T15:36:56.928Z,4.73
2017-09-10T15:39:25.797Z,1.93
2017-09-10T15:41:54.192Z,1.30
2017-09-10T15:44:22.588Z,2.20
2017-09-10T15:46:51.209Z,1.73
2017-09-10T15:49:19.642Z,1.17
2017-09-10T15:51:48.020Z,1.37
2017-09-10T15:54:16.726Z,1.33
2017-09-10T15:56:45.094Z,4.63
2017-09-10T15:59:13.471Z,1.80
2017-09-10T16:01:41.998Z,2.23
2017-09-10T16:04:10.420Z,1.53
2017-09-10T16:06:38.809Z,1.93
2017-09-10T16:09:07.456Z,1.90
2017-09-10T16:11:35.840Z,4.00
2017-09-10T16:14:04.259Z,4.10
2017-09-10T16:16:32.670Z,2.50
2017-09-10T16:19:01.063Z,2.40
2017-09-10T16:21:29.468Z,2.00
2017-09-10T16:23:58.134Z,2.37
2017-09-10T16:26:26.593Z,1.93
2017-09-10T16:28:55.148Z,4.90
2017-09-10T16:31:23.733Z,3.37
2017-09-10T16:33:52.111Z,2.07
2017-09-10T16:36:20.480Z,3.37
2017-09-10T16:38:49.672Z,1.57
2017-09-10T16:41:18.151Z,3.00
2017-09-10T16:43:47.300Z,5.73
2017-09-10T16:46:16.198Z,4.67
2017-09-10T16:48:44.671Z,4.70
2017-09-10T16:51:13.124Z,4.07
2017-09-10T16:53:41.747Z,8.53
2017-09-10T16:56:10.164Z,6.47
2017-09-10T16:58:38.559Z,6.30
2017-09-10T17:01:07.297Z,6.77
2017-09-10T17:03:35.757Z,6.50
2017-09-10T17:06:04.195Z,7.90
2017-09-10T17:08:32.669Z,7.87
2017-09-10T17:11:01.080Z,6.57
2017-09-10T17:13:29.486Z,4.80
2017-09-10T17:15:58.279Z,7.50
2017-09-10T17:18:27.465Z,12.93
2017-09-10T17:20:55.848Z,13.77
2017-09-10T17:23:24.500Z,7.07
2017-09-10T17:25:53.540Z,6.03
2017-09-10T17:28:22.845Z,7.27
2017-09-10T17:30:51.630Z,6.67
2017-09-10T17:33:20.060Z,11.03
2017-09-10T17:35:48.453Z,4.90
2017-09-10T17:38:16.902Z,6.37
2017-09-10T17:40:45.361Z,5.90
2017-09-10T17:43:14.068Z,6.93
2017-09-10T17:45:42.750Z,6.20
2017-09-10T17:48:11.889Z,6.47
2017-09-10T17:50:41.112Z,8.13
2017-09-10T17:53:09.613Z,14.20
2017-09-10T17:55:38.818Z,11.27
2017-09-10T17:58:07.216Z,6.90
2017-09-10T18:00:35.731Z,12.43
2017-09-10T18:03:04.181Z,14.13
2017-09-10T18:05:32.671Z,11.40
2017-09-10T18:08:01.432Z,8.00
2017-09-10T18:10:30.681Z,9.50
2017-09-10T18:12:59.136Z,10.23
2017-09-10T18:15:28.426Z,7.67
2017-09-10T18:17:57.025Z,9.17
2017-09-10T18:20:25.427Z,10.73
2017-09-10T18:22:54.854Z,12.63
2017-09-10T18:25:23.249Z,10.20
2017-09-10T18:27:52.427Z,10.20
2017-09-10T18:30:20.914Z,10.10
2017-09-10T18:32:49.311Z,10.20
2017-09-10T18:35:17.773Z,17.73
2017-09-10T18:37:46.559Z,10.13
2017-09-10T18:40:15.770Z,11.47
2017-09-10T18:42:44.425Z,12.80
2017-09-10T18:45:13.057Z,14.60
2017-09-10T18:47:41.457Z,11.33
2017-09-10T18:50:10.153Z,13.00
2017-09-10T18:52:39.316Z,17.50
2017-09-10T18:55:07.836Z,14.57
2017-09-10T18:57:36.872Z,13.97
2017-09-10T19:00:06.158Z,10.60
2017-09-10T19:02:34.603Z,11.40
2017-09-10T19:05:03.135Z,17.70
2017-09-10T19:07:32.704Z,10.83
2017-09-10T19:10:01.077Z,15.23
2017-09-10T19:12:29.482Z,23.43
2017-09-10T19:14:58.069Z,11.67
2017-09-10T19:17:26.519Z,11.87
2017-09-10T19:19:54.946Z,10.07
2017-09-10T19:22:25.122Z,12.07
2017-09-10T19:24:53.510Z,12.40
2017-09-10T19:27:21.964Z,19.93
2017-09-10T19:29:50.461Z,9.30
2017-09-10T19:32:18.896Z,14.83
2017-09-10T19:34:48.975Z,11.07
2017-09-10T19:37:17.437Z,21.70
2017-09-10T19:39:45.812Z,12.37
2017-09-10T19:42:14.257Z,13.47
2017-09-10T19:44:42.821Z,11.43
2017-09-10T19:47:12.407Z,14.77
2017-09-10T19:49:40.844Z,9.10
2017-09-10T19:52:09.397Z,11.17
2017-09-10T19:54:38.599Z,9.73
2017-09-10T19:57:08.007Z,11.33
2017-09-10T19:59:38.327Z,7.63
2017-09-10T20:02:07.482Z,12.50
2017-09-10T20:04:35.894Z,12.10
2017-09-10T20:07:04.302Z,8.87
2017-09-10T20:09:32.684Z,11.10
2017-09-10T20:12:01.085Z,12.13
2017-09-10T20:14:29.825Z,15.17
2017-09-10T20:16:59.033Z,11.73
2017-09-10T20:19:27.461Z,11.80
2017-09-10T20:21:57.349Z,11.20
2017-09-10T20:24:25.740Z,11.30
2017-09-10T20:26:54.127Z,17.37
2017-09-10T20:29:22.726Z,7.50
2017-09-10T20:31:51.154Z,15.40
2017-09-10T20:34:19.596Z,7.23
2017-09-10T20:36:49.022Z,6.17
2017-09-10T20:39:18.193Z,10.33
2017-09-10T20:41:46.686Z,9.83
2017-09-10T20:44:15.460Z,8.13
2017-09-10T20:46:43.866Z,11.27
2017-09-10T20:49:13.221Z,6.70
2017-09-10T20:51:41.629Z,7.83
2017-09-10T20:54:10.000Z,10.23
2017-09-10T20:56:38.388Z,7.23
2017-09-10T20:59:06.876Z,7.17
2017-09-10T21:01:35.256Z,10.80
2017-09-10T21:04:04.395Z,7.13
2017-09-10T21:06:33.119Z,8.20
2017-09-10T21:09:01.494Z,9.83
2017-09-10T21:11:29.913Z,9.93
2017-09-10T21:13:58.520Z,6.57
2017-09-10T21:16:27.162Z,10.53
2017-09-10T21:18:56.412Z,7.50
2017-09-10T21:21:24.853Z,10.97
2017-09-10T21:23:54.321Z,10.10
2017-09-10T21:26:22.764Z,7.77
2017-09-10T21:28:51.527Z,7.70
2017-09-10T21:31:20.675Z,9.50
2017-09-10T21:33:49.150Z,8.27
2017-09-10T21:36:17.727Z,8.87
2017-09-10T21:38:46.120Z,10.60
2017-09-10T21:41:14.542Z,10.13
2017-09-10T21:43:44.123Z,6.90
2017-09-10T21:46:12.529Z,8.90
2017-09-10T21:48:41.809Z,11.33
2017-09-10T21:51:10.550Z,9.50
2017-09-10T21:53:38.927Z,9.70
2017-09-10T21:56:07.293Z,6.73
2017-09-10T21:58:35.723Z,6.87
2017-09-10T22:01:04.186Z,7.80
2017-09-10T22:03:32.607Z,7.30
2017-09-10T22:06:01.996Z,10.50
2017-09-10T22:08:30.371Z,9.57
2017-09-10T22:10:58.771Z,8.20
2017-09-10T22:13:28.674Z,9.33
2017-09-10T22:15:57.050Z,10.00
2017-09-10T22:18:26.187Z,5.77
2017-09-10T22:20:54.940Z,6.87
2017-09-10T22:23:23.319Z,5.10
2017-09-10T22:25:52.492Z,10.03
2017-09-10T22:28:20.896Z,9.67
2017-09-10T22:30:50.028Z,8.47
2017-09-10T22:33:18.392Z,8.43
2017-09-10T22:35:47.158Z,6.20
2017-09-10T22:38:16.495Z,11.30
2017-09-10T22:40:44.933Z,6.07
2017-09-10T22:43:13.380Z,6.87
2017-09-10T22:45:41.758Z,8.40
2017-09-10T22:48:10.141Z,8.03
2017-09-10T22:50:38.779Z,12.80
2017-09-10T22:53:07.290Z,9.30
2017-09-10T22:55:35.665Z,9.07
2017-09-10T22:58:05.077Z,11.50
2017-09-10T23:00:33.442Z,7.53
2017-09-10T23:03:01.968Z,5.27
2017-09-10T23:05:30.553Z,8.50
2017-09-10T23:07:58.977Z,6.40
2017-09-10T23:10:27.361Z,6.40
2017-09-10T23:12:56.095Z,5.20
2017-09-10T23:15:24.462Z,5.90
2017-09-10T23:17:52.862Z,5.80
2017-09-10T23:20:21.273Z,8.40
2017-09-10T23:22:49.715Z,4.80
2017-09-10T23:25:18.086Z,5.07
2017-09-10T23:27:46.989Z,4.83
2017-09-10T23:30:15.365Z,5.60
2017-09-10T23:32:43.764Z,4.97
2017-09-10T23:35:13.108Z,5.73
2017-09-10T23:37:41.475Z,8.93
2017-09-10T23:40:09.848Z,7.60
2017-09-10T23:42:38.243Z,4.30
2017-09-10T23:45:06.654Z,7.30
2017-09-10T23:47:35.031Z,6.07
2017-09-10T23:50:03.738Z,3.13
2017-09-10T23:52:32.175Z,3.27
2017-09-10T23:55:00.758Z,7.53
2017-09-10T23:57:29.386Z,2.23
2017-09-10T23:59:58.535Z,4.80
